UAL433 KLAX-KSFO
Flight info
| Callsign | UAL433 |
|---|---|
| Flight time | 1h 17m |
| Altitude | 32000 |
| Route | SUMMR2 STOKD SERFR SERFR4 |
| Aircraft | B738/M-SDE2E3FGHIRWXY/LB1 |
Departure
| Time | 2026-04-20 21:12 |
|---|---|
| Airport | Los Angeles International Airport (KLAX) |
Arrival
| Time | 2026-04-20 22:30 |
|---|---|
| Airport | San Francisco International Airport (KSFO) |
| Time | Latitude | Longitude | Altitude | Speed | Heading |
|---|---|---|---|---|---|
| 2026-04-20 20:41 | 33.94169 | -118.39769 | 92 ft | 0 kts | 83° |
| 2026-04-20 20:57 | 33.94166 | -118.39797 | 92 ft | 4 kts | 83° |
| 2026-04-20 20:57 | 33.94164 | -118.39822 | 92 ft | 4 kts | 105° |
| 2026-04-20 20:58 | 33.94177 | -118.39838 | 94 ft | 3 kts | 173° |
| 2026-04-20 20:58 | 33.94164 | -118.39836 | 92 ft | 4 kts | 173° |
| 2026-04-20 20:58 | 33.94145 | -118.39833 | 94 ft | 0 kts | 173° |
| 2026-04-20 21:01 | 33.94134 | -118.39831 | 93 ft | 5 kts | 173° |
| 2026-04-20 21:01 | 33.94066 | -118.39826 | 92 ft | 14 kts | 182° |
| 2026-04-20 21:01 | 33.93947 | -118.39807 | 95 ft | 18 kts | 157° |
| 2026-04-20 21:01 | 33.93911 | -118.39679 | 94 ft | 18 kts | 83° |
| 2026-04-20 21:02 | 33.93928 | -118.39514 | 95 ft | 22 kts | 83° |
| 2026-04-20 21:02 | 33.93949 | -118.39309 | 92 ft | 28 kts | 83° |
| 2026-04-20 21:02 | 33.93974 | -118.39059 | 93 ft | 32 kts | 83° |
| 2026-04-20 21:02 | 33.94002 | -118.38787 | 94 ft | 34 kts | 83° |
| 2026-04-20 21:03 | 33.94031 | -118.38513 | 95 ft | 26 kts | 83° |
| 2026-04-20 21:03 | 33.94052 | -118.38295 | 95 ft | 27 kts | 82° |
| 2026-04-20 21:03 | 33.94072 | -118.38107 | 92 ft | 14 kts | 83° |
| 2026-04-20 21:03 | 33.94074 | -118.38091 | 92 ft | 0 kts | 83° |
| 2026-04-20 21:07 | 33.94074 | -118.38090 | 92 ft | 0 kts | 83° |
| 2026-04-20 21:07 | 33.94075 | -118.38077 | 92 ft | 3 kts | 83° |
| 2026-04-20 21:07 | 33.94076 | -118.38034 | 92 ft | 7 kts | 102° |
| 2026-04-20 21:07 | 33.94072 | -118.38022 | 92 ft | 0 kts | 118° |
| 2026-04-20 21:10 | 33.94059 | -118.38006 | 91 ft | 8 kts | 152° |
| 2026-04-20 21:10 | 33.93990 | -118.38006 | 93 ft | 9 kts | 218° |
| 2026-04-20 21:10 | 33.93983 | -118.38032 | 94 ft | 0 kts | 263° |
| 2026-04-20 21:12 | 33.93976 | -118.38107 | 93 ft | 38 kts | 263° |
| 2026-04-20 21:12 | 33.93911 | -118.38747 | 96 ft | 114 kts | 263° |
| 2026-04-20 21:12 | 33.93779 | -118.39937 | 274 ft | 162 kts | 261° |
| 2026-04-20 21:12 | 33.93624 | -118.41315 | 1122 ft | 164 kts | 261° |
| 2026-04-20 21:13 | 33.93474 | -118.42739 | 1798 ft | 189 kts | 261° |
| 2026-04-20 21:13 | 33.93282 | -118.44444 | 2073 ft | 223 kts | 261° |
| 2026-04-20 21:13 | 33.93088 | -118.46427 | 2350 ft | 248 kts | 264° |
| 2026-04-20 21:13 | 33.92937 | -118.48578 | 2825 ft | 266 kts | 263° |
| 2026-04-20 21:14 | 33.92745 | -118.50783 | 3867 ft | 266 kts | 263° |
| 2026-04-20 21:14 | 33.92567 | -118.53019 | 4791 ft | 270 kts | 263° |
| 2026-04-20 21:14 | 33.92392 | -118.55276 | 5736 ft | 271 kts | 263° |
| 2026-04-20 21:14 | 33.92210 | -118.57548 | 6631 ft | 275 kts | 261° |
| 2026-04-20 21:15 | 33.92024 | -118.59818 | 7469 ft | 278 kts | 262° |
| 2026-04-20 21:15 | 33.91837 | -118.62089 | 8195 ft | 258 kts | 261° |
| 2026-04-20 21:15 | 33.91736 | -118.64118 | 8553 ft | 231 kts | 265° |
| 2026-04-20 21:15 | 33.91734 | -118.64296 | 8553 ft | 230 kts | 265° |
| 2026-04-20 21:16 | 33.91730 | -118.65880 | 8505 ft | 221 kts | 266° |
| 2026-04-20 21:16 | 33.91734 | -118.67722 | 8136 ft | 227 kts | 266° |
| 2026-04-20 21:16 | 33.91726 | -118.69681 | 7692 ft | 236 kts | 267° |
| 2026-04-20 21:16 | 33.91738 | -118.71639 | 7469 ft | 239 kts | 270° |
| 2026-04-20 21:17 | 33.91955 | -118.73762 | 7075 ft | 270 kts | 280° |
| 2026-04-20 21:17 | 33.92361 | -118.75935 | 7505 ft | 259 kts | 281° |
| 2026-04-20 21:17 | 33.92723 | -118.78015 | 7961 ft | 250 kts | 278° |
| 2026-04-20 21:17 | 33.92963 | -118.80099 | 8063 ft | 255 kts | 272° |
| 2026-04-20 21:18 | 33.92951 | -118.82264 | 8100 ft | 261 kts | 263° |
| 2026-04-20 21:18 | 33.92846 | -118.84433 | 8253 ft | 264 kts | 264° |
| 2026-04-20 21:18 | 33.92553 | -118.86635 | 8427 ft | 264 kts | 257° |
| 2026-04-20 21:18 | 33.92279 | -118.88792 | 8628 ft | 267 kts | 262° |
| 2026-04-20 21:19 | 33.92145 | -118.91055 | 8684 ft | 274 kts | 265° |
| 2026-04-20 21:19 | 33.92138 | -118.93355 | 8866 ft | 276 kts | 269° |
| 2026-04-20 21:19 | 33.92178 | -118.95688 | 8960 ft | 280 kts | 268° |
| 2026-04-20 21:20 | 33.92253 | -119.00436 | 9792 ft | 288 kts | 269° |
| 2026-04-20 21:20 | 33.92751 | -119.02782 | 10066 ft | 296 kts | 296° |
| 2026-04-20 21:20 | 33.93851 | -119.04928 | 10260 ft | 312 kts | 299° |
| 2026-04-20 21:20 | 33.95062 | -119.07217 | 10510 ft | 336 kts | 300° |
| 2026-04-20 21:21 | 33.96335 | -119.09631 | 11088 ft | 346 kts | 299° |
| 2026-04-20 21:21 | 33.97625 | -119.12101 | 11854 ft | 349 kts | 298° |
| 2026-04-20 21:21 | 33.98914 | -119.14589 | 12690 ft | 352 kts | 298° |
| 2026-04-20 21:21 | 34.00213 | -119.17109 | 13520 ft | 355 kts | 298° |
| 2026-04-20 21:22 | 34.01779 | -119.19451 | 14262 ft | 368 kts | 316° |
| 2026-04-20 21:22 | 34.03862 | -119.21288 | 15038 ft | 373 kts | 321° |
| 2026-04-20 21:22 | 34.06012 | -119.23085 | 15787 ft | 378 kts | 321° |
| 2026-04-20 21:22 | 34.08190 | -119.24903 | 16551 ft | 383 kts | 320° |
| 2026-04-20 21:23 | 34.10393 | -119.26756 | 17254 ft | 388 kts | 320° |
| 2026-04-20 21:23 | 34.12619 | -119.28646 | 17971 ft | 393 kts | 319° |
| 2026-04-20 21:23 | 34.14862 | -119.30564 | 18642 ft | 398 kts | 319° |
| 2026-04-20 21:23 | 34.17127 | -119.32510 | 19280 ft | 401 kts | 319° |
| 2026-04-20 21:24 | 34.19407 | -119.34473 | 19939 ft | 405 kts | 319° |
| 2026-04-20 21:24 | 34.21677 | -119.36431 | 20580 ft | 408 kts | 319° |
| 2026-04-20 21:24 | 34.23998 | -119.38435 | 21229 ft | 411 kts | 319° |
| 2026-04-20 21:24 | 34.25222 | -119.39492 | 21560 ft | 413 kts | 319° |
| 2026-04-20 21:25 | 34.27573 | -119.41524 | 22180 ft | 417 kts | 319° |
| 2026-04-20 21:25 | 34.29941 | -119.43573 | 22779 ft | 421 kts | 319° |
| 2026-04-20 21:25 | 34.32331 | -119.45642 | 23371 ft | 424 kts | 319° |
| 2026-04-20 21:25 | 34.34741 | -119.47728 | 23907 ft | 428 kts | 319° |
| 2026-04-20 21:26 | 34.37168 | -119.49831 | 24415 ft | 431 kts | 320° |
| 2026-04-20 21:26 | 34.39614 | -119.51951 | 24939 ft | 433 kts | 320° |
| 2026-04-20 21:26 | 34.42027 | -119.54149 | 25423 ft | 434 kts | 314° |
| 2026-04-20 21:26 | 34.44219 | -119.56650 | 25907 ft | 433 kts | 310° |
| 2026-04-20 21:27 | 34.46320 | -119.59280 | 26400 ft | 435 kts | 308° |
| 2026-04-20 21:27 | 34.48401 | -119.61955 | 26864 ft | 438 kts | 308° |
| 2026-04-20 21:27 | 34.50500 | -119.64646 | 27314 ft | 441 kts | 309° |
| 2026-04-20 21:27 | 34.52625 | -119.67342 | 27761 ft | 444 kts | 309° |
| 2026-04-20 21:28 | 34.54779 | -119.70043 | 28196 ft | 447 kts | 310° |
| 2026-04-20 21:28 | 34.56957 | -119.72750 | 28664 ft | 450 kts | 310° |
| 2026-04-20 21:28 | 34.59158 | -119.75473 | 29144 ft | 451 kts | 310° |
| 2026-04-20 21:28 | 34.61357 | -119.78187 | 29745 ft | 449 kts | 310° |
| 2026-04-20 21:29 | 34.63541 | -119.80881 | 30339 ft | 447 kts | 310° |
| 2026-04-20 21:29 | 34.65716 | -119.83566 | 30916 ft | 444 kts | 310° |
| 2026-04-20 21:29 | 34.67871 | -119.86231 | 31461 ft | 442 kts | 310° |
| 2026-04-20 21:29 | 34.70022 | -119.88896 | 31946 ft | 441 kts | 310° |
| 2026-04-20 21:30 | 34.72172 | -119.91564 | 32029 ft | 444 kts | 310° |
| 2026-04-20 21:30 | 34.76480 | -119.96915 | 32052 ft | 443 kts | 310° |
| 2026-04-20 21:31 | 34.80799 | -120.02289 | 32036 ft | 445 kts | 310° |
| 2026-04-20 21:31 | 34.85105 | -120.07653 | 32041 ft | 446 kts | 310° |
| 2026-04-20 21:32 | 34.89444 | -120.13065 | 32041 ft | 446 kts | 309° |
| 2026-04-20 21:32 | 34.93766 | -120.18467 | 32049 ft | 445 kts | 309° |
| 2026-04-20 21:33 | 34.98077 | -120.23863 | 32040 ft | 444 kts | 309° |
| 2026-04-20 21:33 | 35.02374 | -120.29251 | 32047 ft | 442 kts | 309° |
| 2026-04-20 21:34 | 35.06665 | -120.34640 | 32051 ft | 442 kts | 309° |
| 2026-04-20 21:34 | 35.11018 | -120.39956 | 32063 ft | 444 kts | 312° |
| 2026-04-20 21:35 | 35.15598 | -120.45043 | 32058 ft | 446 kts | 313° |
| 2026-04-20 21:35 | 35.19430 | -120.49261 | 32070 ft | 446 kts | 313° |
| 2026-04-20 21:36 | 35.24014 | -120.54372 | 32067 ft | 446 kts | 313° |
| 2026-04-20 21:36 | 35.28578 | -120.59506 | 32073 ft | 447 kts | 313° |
| 2026-04-20 21:37 | 35.33161 | -120.64674 | 32061 ft | 448 kts | 313° |
| 2026-04-20 21:37 | 35.37743 | -120.69848 | 32068 ft | 448 kts | 313° |
| 2026-04-20 21:38 | 35.42330 | -120.75035 | 32060 ft | 449 kts | 313° |
| 2026-04-20 21:38 | 35.46919 | -120.80231 | 32056 ft | 448 kts | 312° |
| 2026-04-20 21:39 | 35.51674 | -120.85214 | 32067 ft | 451 kts | 318° |
| 2026-04-20 21:39 | 35.56701 | -120.89763 | 32063 ft | 452 kts | 319° |
| 2026-04-20 21:40 | 35.61773 | -120.94339 | 32051 ft | 452 kts | 319° |
| 2026-04-20 21:40 | 35.66803 | -120.98978 | 32072 ft | 452 kts | 318° |
| 2026-04-20 21:41 | 35.71825 | -121.03661 | 32041 ft | 453 kts | 318° |
| 2026-04-20 21:41 | 35.76842 | -121.08352 | 32047 ft | 453 kts | 318° |
| 2026-04-20 21:42 | 35.81866 | -121.13054 | 32035 ft | 453 kts | 318° |
| 2026-04-20 21:42 | 35.86891 | -121.17763 | 32036 ft | 454 kts | 318° |
| 2026-04-20 21:43 | 35.91904 | -121.22481 | 32045 ft | 453 kts | 317° |
| 2026-04-20 21:43 | 35.96924 | -121.27203 | 31993 ft | 454 kts | 317° |
| 2026-04-20 21:43 | 35.99441 | -121.29570 | 31604 ft | 452 kts | 317° |
| 2026-04-20 21:44 | 36.01920 | -121.31899 | 31197 ft | 446 kts | 317° |
| 2026-04-20 21:44 | 36.04380 | -121.34217 | 30777 ft | 442 kts | 317° |
| 2026-04-20 21:44 | 36.06822 | -121.36515 | 30345 ft | 440 kts | 318° |
| 2026-04-20 21:44 | 36.09333 | -121.38662 | 29904 ft | 439 kts | 321° |
| 2026-04-20 21:45 | 36.11916 | -121.40682 | 29401 ft | 437 kts | 322° |
| 2026-04-20 21:45 | 36.14500 | -121.42637 | 28936 ft | 434 kts | 322° |
| 2026-04-20 21:45 | 36.17068 | -121.44575 | 28459 ft | 430 kts | 322° |
| 2026-04-20 21:45 | 36.19600 | -121.46504 | 28022 ft | 423 kts | 322° |
| 2026-04-20 21:46 | 36.22084 | -121.48416 | 27642 ft | 418 kts | 321° |
| 2026-04-20 21:46 | 36.24545 | -121.50326 | 27168 ft | 416 kts | 321° |
| 2026-04-20 21:46 | 36.26983 | -121.52229 | 26745 ft | 414 kts | 321° |
| 2026-04-20 21:46 | 36.29409 | -121.54128 | 26282 ft | 412 kts | 320° |
| 2026-04-20 21:47 | 36.31802 | -121.56004 | 25898 ft | 411 kts | 320° |
| 2026-04-20 21:47 | 36.34215 | -121.57895 | 25444 ft | 409 kts | 320° |
| 2026-04-20 21:47 | 36.36613 | -121.59775 | 25060 ft | 407 kts | 320° |
| 2026-04-20 21:47 | 36.39004 | -121.61649 | 24638 ft | 405 kts | 320° |
| 2026-04-20 21:48 | 36.41380 | -121.63514 | 24250 ft | 404 kts | 320° |
| 2026-04-20 21:48 | 36.43754 | -121.65378 | 23806 ft | 404 kts | 320° |
| 2026-04-20 21:48 | 36.46122 | -121.67238 | 23381 ft | 401 kts | 320° |
| 2026-04-20 21:48 | 36.48476 | -121.69090 | 22913 ft | 400 kts | 320° |
| 2026-04-20 21:49 | 36.50817 | -121.70934 | 22486 ft | 397 kts | 320° |
| 2026-04-20 21:49 | 36.53140 | -121.72769 | 22077 ft | 394 kts | 320° |
| 2026-04-20 21:49 | 36.55445 | -121.74591 | 21681 ft | 391 kts | 319° |
| 2026-04-20 21:49 | 36.57737 | -121.76405 | 21238 ft | 389 kts | 319° |
| 2026-04-20 21:50 | 36.60015 | -121.78210 | 20840 ft | 387 kts | 320° |
| 2026-04-20 21:50 | 36.62280 | -121.80004 | 20456 ft | 385 kts | 320° |
| 2026-04-20 21:50 | 36.64540 | -121.81795 | 20035 ft | 383 kts | 319° |
| 2026-04-20 21:50 | 36.66785 | -121.83575 | 19635 ft | 382 kts | 319° |
| 2026-04-20 21:51 | 36.69020 | -121.85348 | 19230 ft | 381 kts | 319° |
| 2026-04-20 21:51 | 36.71219 | -121.87095 | 18841 ft | 379 kts | 319° |
| 2026-04-20 21:51 | 36.73437 | -121.88857 | 18496 ft | 377 kts | 320° |
| 2026-04-20 21:51 | 36.75580 | -121.90702 | 18064 ft | 371 kts | 314° |
| 2026-04-20 21:52 | 36.77564 | -121.92727 | 17634 ft | 367 kts | 311° |
| 2026-04-20 21:52 | 36.79486 | -121.94806 | 17222 ft | 364 kts | 311° |
| 2026-04-20 21:52 | 36.81386 | -121.96879 | 16822 ft | 362 kts | 311° |
| 2026-04-20 21:52 | 36.83278 | -121.98927 | 16430 ft | 359 kts | 311° |
| 2026-04-20 21:53 | 36.85169 | -122.00953 | 16047 ft | 357 kts | 312° |
| 2026-04-20 21:53 | 36.87057 | -122.02961 | 15664 ft | 355 kts | 313° |
| 2026-04-20 21:53 | 36.88937 | -122.04950 | 15287 ft | 353 kts | 313° |
| 2026-04-20 21:53 | 36.90804 | -122.06922 | 14912 ft | 351 kts | 314° |
| 2026-04-20 21:54 | 36.92671 | -122.08892 | 14551 ft | 351 kts | 314° |
| 2026-04-20 21:54 | 36.94539 | -122.10864 | 14150 ft | 351 kts | 314° |
| 2026-04-20 21:54 | 36.96401 | -122.12829 | 13759 ft | 351 kts | 315° |
| 2026-04-20 21:54 | 36.98266 | -122.14798 | 13339 ft | 350 kts | 315° |
| 2026-04-20 21:55 | 37.00126 | -122.16763 | 12935 ft | 349 kts | 315° |
| 2026-04-20 21:55 | 37.01975 | -122.18715 | 12555 ft | 347 kts | 315° |
| 2026-04-20 21:55 | 37.03813 | -122.20658 | 12169 ft | 345 kts | 315° |
| 2026-04-20 21:55 | 37.05643 | -122.22594 | 11798 ft | 343 kts | 315° |
| 2026-04-20 21:56 | 37.07458 | -122.24515 | 11414 ft | 340 kts | 315° |
| 2026-04-20 21:56 | 37.09244 | -122.26406 | 11225 ft | 331 kts | 315° |
| 2026-04-20 21:56 | 37.10981 | -122.28248 | 11087 ft | 323 kts | 314° |
| 2026-04-20 21:56 | 37.12670 | -122.30050 | 10903 ft | 316 kts | 314° |
| 2026-04-20 21:57 | 37.14320 | -122.31853 | 10715 ft | 315 kts | 314° |
| 2026-04-20 21:57 | 37.15972 | -122.33676 | 10518 ft | 319 kts | 314° |
| 2026-04-20 21:57 | 37.17639 | -122.35515 | 10296 ft | 319 kts | 313° |
| 2026-04-20 21:57 | 37.19308 | -122.37357 | 10087 ft | 321 kts | 313° |
| 2026-04-20 21:58 | 37.20989 | -122.39210 | 9974 ft | 320 kts | 314° |
| 2026-04-20 21:58 | 37.22650 | -122.41038 | 9956 ft | 315 kts | 313° |
| 2026-04-20 21:58 | 37.24286 | -122.42837 | 9904 ft | 309 kts | 313° |
| 2026-04-20 21:58 | 37.25888 | -122.44600 | 9704 ft | 303 kts | 313° |
| 2026-04-20 21:59 | 37.27460 | -122.46332 | 9503 ft | 300 kts | 313° |
| 2026-04-20 21:59 | 37.29025 | -122.48058 | 9228 ft | 298 kts | 313° |
| 2026-04-20 21:59 | 37.30575 | -122.49770 | 8982 ft | 296 kts | 312° |
| 2026-04-20 21:59 | 37.32119 | -122.51476 | 8774 ft | 296 kts | 313° |
| 2026-04-20 22:00 | 37.33659 | -122.53178 | 8587 ft | 294 kts | 313° |
| 2026-04-20 22:00 | 37.35187 | -122.54866 | 8392 ft | 291 kts | 313° |
| 2026-04-20 22:00 | 37.36703 | -122.56543 | 8161 ft | 290 kts | 313° |
| 2026-04-20 22:00 | 37.38194 | -122.58193 | 7953 ft | 289 kts | 313° |
| 2026-04-20 22:01 | 37.39701 | -122.59861 | 7711 ft | 288 kts | 313° |
| 2026-04-20 22:01 | 37.41199 | -122.61520 | 7464 ft | 286 kts | 313° |
| 2026-04-20 22:01 | 37.42686 | -122.63166 | 7207 ft | 285 kts | 311° |
| 2026-04-20 22:01 | 37.44180 | -122.64823 | 6878 ft | 288 kts | 311° |
| 2026-04-20 22:02 | 37.45682 | -122.66489 | 6653 ft | 287 kts | 312° |
| 2026-04-20 22:02 | 37.47171 | -122.68141 | 6445 ft | 284 kts | 312° |
| 2026-04-20 22:02 | 37.48646 | -122.69779 | 6212 ft | 281 kts | 313° |
| 2026-04-20 22:02 | 37.50103 | -122.71399 | 6075 ft | 276 kts | 313° |
| 2026-04-20 22:03 | 37.51509 | -122.72982 | 6010 ft | 266 kts | 311° |
| 2026-04-20 22:03 | 37.52850 | -122.74525 | 5977 ft | 256 kts | 310° |
| 2026-04-20 22:03 | 37.54125 | -122.76034 | 5926 ft | 247 kts | 309° |
| 2026-04-20 22:03 | 37.55356 | -122.77512 | 5811 ft | 243 kts | 309° |
| 2026-04-20 22:04 | 37.56560 | -122.78979 | 5667 ft | 239 kts | 307° |
| 2026-04-20 22:04 | 37.57881 | -122.80262 | 5468 ft | 247 kts | 330° |
| 2026-04-20 22:04 | 37.59580 | -122.80626 | 5221 ft | 252 kts | 3° |
| 2026-04-20 22:04 | 37.61264 | -122.80011 | 4854 ft | 253 kts | 21° |
| 2026-04-20 22:05 | 37.62895 | -122.79130 | 4479 ft | 255 kts | 22° |
| 2026-04-20 22:05 | 37.64492 | -122.78239 | 4186 ft | 250 kts | 23° |
| 2026-04-20 22:05 | 37.66098 | -122.77337 | 4032 ft | 251 kts | 23° |
| 2026-04-20 22:05 | 37.67689 | -122.76444 | 4007 ft | 250 kts | 22° |
| 2026-04-20 22:06 | 37.69291 | -122.75527 | 4008 ft | 255 kts | 22° |
| 2026-04-20 22:06 | 37.70905 | -122.74594 | 3997 ft | 254 kts | 27° |
| 2026-04-20 22:06 | 37.72214 | -122.73194 | 3989 ft | 242 kts | 60° |
| 2026-04-20 22:06 | 37.72731 | -122.71330 | 4001 ft | 213 kts | 95° |
| 2026-04-20 22:07 | 37.72656 | -122.69548 | 4018 ft | 203 kts | 102° |
| 2026-04-20 22:07 | 37.72515 | -122.67761 | 4001 ft | 202 kts | 103° |
| 2026-04-20 22:07 | 37.72375 | -122.66029 | 3993 ft | 199 kts | 103° |
| 2026-04-20 22:07 | 37.72232 | -122.64301 | 3993 ft | 197 kts | 103° |
| 2026-04-20 22:08 | 37.72105 | -122.62570 | 3989 ft | 195 kts | 103° |
| 2026-04-20 22:08 | 37.71993 | -122.60834 | 3771 ft | 205 kts | 103° |
| 2026-04-20 22:08 | 37.71898 | -122.59018 | 3493 ft | 200 kts | 103° |
| 2026-04-20 22:08 | 37.71813 | -122.57348 | 3263 ft | 184 kts | 110° |
| 2026-04-20 22:09 | 37.71350 | -122.56027 | 3108 ft | 155 kts | 135° |
| 2026-04-20 22:09 | 37.70734 | -122.54919 | 2950 ft | 156 kts | 137° |
| 2026-04-20 22:09 | 37.70082 | -122.53775 | 2610 ft | 165 kts | 137° |
| 2026-04-20 22:09 | 37.69429 | -122.52616 | 2317 ft | 160 kts | 137° |
| 2026-04-20 22:10 | 37.68805 | -122.51499 | 2123 ft | 151 kts | 136° |
| 2026-04-20 22:10 | 37.68201 | -122.50425 | 1978 ft | 149 kts | 136° |
| 2026-04-20 22:10 | 37.67616 | -122.49387 | 1832 ft | 141 kts | 137° |
| 2026-04-20 22:10 | 37.67114 | -122.48391 | 1666 ft | 129 kts | 133° |
| 2026-04-20 22:11 | 37.66662 | -122.47423 | 1500 ft | 127 kts | 133° |
| 2026-04-20 22:11 | 37.66205 | -122.46458 | 1329 ft | 129 kts | 131° |
| 2026-04-20 22:11 | 37.65760 | -122.45517 | 1120 ft | 120 kts | 131° |
| 2026-04-20 22:11 | 37.65278 | -122.44510 | 1170 ft | 150 kts | 130° |
| 2026-04-20 22:12 | 37.64749 | -122.43390 | 1073 ft | 145 kts | 130° |
| 2026-04-20 22:12 | 37.64260 | -122.42352 | 858 ft | 132 kts | 127° |
| 2026-04-20 22:12 | 37.63780 | -122.41327 | 476 ft | 137 kts | 124° |
| 2026-04-20 22:12 | 37.63290 | -122.40245 | 251 ft | 148 kts | 123° |
| 2026-04-20 22:13 | 37.62778 | -122.39082 | 70 ft | 153 kts | 121° |
| 2026-04-20 22:13 | 37.62308 | -122.37972 | 29 ft | 132 kts | 124° |
| 2026-04-20 22:13 | 37.61816 | -122.36855 | 357 ft | 163 kts | 123° |
| 2026-04-20 22:13 | 37.61197 | -122.35468 | 803 ft | 193 kts | 124° |
| 2026-04-20 22:14 | 37.60532 | -122.34007 | 1402 ft | 187 kts | 125° |
| 2026-04-20 22:14 | 37.59979 | -122.32607 | 2177 ft | 177 kts | 120° |
| 2026-04-20 22:14 | 37.59508 | -122.31122 | 2996 ft | 188 kts | 120° |
| 2026-04-20 22:14 | 37.59026 | -122.29576 | 3967 ft | 192 kts | 120° |
| 2026-04-20 22:15 | 37.58530 | -122.27994 | 4664 ft | 197 kts | 120° |
| 2026-04-20 22:15 | 37.58028 | -122.26391 | 4974 ft | 198 kts | 120° |
| 2026-04-20 22:15 | 37.57520 | -122.24769 | 5000 ft | 200 kts | 117° |
| 2026-04-20 22:15 | 37.57406 | -122.22981 | 5002 ft | 216 kts | 82° |
| 2026-04-20 22:16 | 37.58194 | -122.21208 | 5022 ft | 255 kts | 47° |
| 2026-04-20 22:16 | 37.59718 | -122.20020 | 5019 ft | 267 kts | 16° |
| 2026-04-20 22:16 | 37.61567 | -122.19785 | 5024 ft | 263 kts | 355° |
| 2026-04-20 22:16 | 37.63401 | -122.19905 | 5021 ft | 264 kts | 353° |
| 2026-04-20 22:17 | 37.65210 | -122.20095 | 5002 ft | 263 kts | 345° |
| 2026-04-20 22:17 | 37.66846 | -122.21013 | 5022 ft | 251 kts | 314° |
| 2026-04-20 22:17 | 37.67905 | -122.22679 | 5031 ft | 241 kts | 295° |
| 2026-04-20 22:17 | 37.68746 | -122.24478 | 5027 ft | 242 kts | 293° |
| 2026-04-20 22:18 | 37.69597 | -122.26352 | 5016 ft | 243 kts | 293° |
| 2026-04-20 22:18 | 37.70427 | -122.28189 | 5014 ft | 244 kts | 293° |
| 2026-04-20 22:18 | 37.71278 | -122.30081 | 5007 ft | 244 kts | 293° |
| 2026-04-20 22:18 | 37.72106 | -122.31915 | 5012 ft | 243 kts | 292° |
| 2026-04-20 22:19 | 37.72942 | -122.33761 | 5009 ft | 242 kts | 293° |
| 2026-04-20 22:19 | 37.73779 | -122.35594 | 5020 ft | 240 kts | 292° |
| 2026-04-20 22:19 | 37.74632 | -122.37407 | 5026 ft | 240 kts | 292° |
| 2026-04-20 22:19 | 37.75492 | -122.39213 | 5018 ft | 240 kts | 292° |
| 2026-04-20 22:20 | 37.76364 | -122.41025 | 5017 ft | 241 kts | 293° |
| 2026-04-20 22:20 | 37.77239 | -122.42840 | 5012 ft | 242 kts | 293° |
| 2026-04-20 22:20 | 37.78105 | -122.44636 | 4982 ft | 235 kts | 293° |
| 2026-04-20 22:20 | 37.78928 | -122.46359 | 4996 ft | 224 kts | 293° |
| 2026-04-20 22:21 | 37.79717 | -122.48017 | 4983 ft | 217 kts | 293° |
| 2026-04-20 22:21 | 37.80493 | -122.49649 | 4997 ft | 216 kts | 293° |
| 2026-04-20 22:21 | 37.81266 | -122.51266 | 4986 ft | 214 kts | 292° |
| 2026-04-20 22:21 | 37.82027 | -122.52860 | 4981 ft | 207 kts | 287° |
| 2026-04-20 22:22 | 37.82270 | -122.54539 | 4925 ft | 192 kts | 253° |
| 2026-04-20 22:22 | 37.81687 | -122.56010 | 4688 ft | 188 kts | 226° |
| 2026-04-20 22:22 | 37.80801 | -122.57226 | 4424 ft | 188 kts | 223° |
| 2026-04-20 22:22 | 37.79900 | -122.58415 | 4166 ft | 186 kts | 223° |
| 2026-04-20 22:23 | 37.79018 | -122.59584 | 4061 ft | 181 kts | 223° |
| 2026-04-20 22:23 | 37.78133 | -122.60747 | 4047 ft | 181 kts | 223° |
| 2026-04-20 22:23 | 37.77550 | -122.61504 | 4014 ft | 174 kts | 223° |
| 2026-04-20 22:23 | 37.76756 | -122.62543 | 4006 ft | 164 kts | 223° |
| 2026-04-20 22:24 | 37.75866 | -122.63432 | 3990 ft | 164 kts | 199° |
| 2026-04-20 22:24 | 37.74736 | -122.63362 | 3999 ft | 173 kts | 161° |
| 2026-04-20 22:24 | 37.73765 | -122.62413 | 3984 ft | 184 kts | 134° |
| 2026-04-20 22:24 | 37.73070 | -122.61041 | 3878 ft | 189 kts | 132° |
| 2026-04-20 22:25 | 37.72396 | -122.59619 | 3648 ft | 187 kts | 131° |
| 2026-04-20 22:25 | 37.71744 | -122.58220 | 3419 ft | 183 kts | 131° |
| 2026-04-20 22:25 | 37.71108 | -122.56856 | 3171 ft | 175 kts | 131° |
| 2026-04-20 22:25 | 37.70512 | -122.55575 | 2939 ft | 165 kts | 133° |
| 2026-04-20 22:26 | 37.69942 | -122.54360 | 2732 ft | 157 kts | 135° |
| 2026-04-20 22:26 | 37.69388 | -122.53189 | 2547 ft | 154 kts | 135° |
| 2026-04-20 22:26 | 37.68857 | -122.52057 | 2331 ft | 145 kts | 135° |
| 2026-04-20 22:27 | 37.67885 | -122.49990 | 2007 ft | 127 kts | 135° |
| 2026-04-20 22:27 | 37.67420 | -122.49019 | 1820 ft | 130 kts | 134° |
| 2026-04-20 22:27 | 37.66978 | -122.48080 | 1613 ft | 116 kts | 132° |
| 2026-04-20 22:27 | 37.66564 | -122.47209 | 1521 ft | 123 kts | 133° |
| 2026-04-20 22:28 | 37.66116 | -122.46241 | 1336 ft | 130 kts | 133° |
| 2026-04-20 22:28 | 37.65650 | -122.45271 | 1135 ft | 125 kts | 131° |
| 2026-04-20 22:28 | 37.65227 | -122.44340 | 944 ft | 122 kts | 131° |
| 2026-04-20 22:28 | 37.64772 | -122.43416 | 760 ft | 129 kts | 128° |
| 2026-04-20 22:29 | 37.64277 | -122.42423 | 626 ft | 136 kts | 128° |
| 2026-04-20 22:29 | 37.63750 | -122.41416 | 458 ft | 138 kts | 123° |
| 2026-04-20 22:29 | 37.63306 | -122.40320 | 251 ft | 142 kts | 122° |
| 2026-04-20 22:29 | 37.62839 | -122.39223 | 59 ft | 142 kts | 124° |
| 2026-04-20 22:30 | 37.62401 | -122.38225 | 21 ft | 105 kts | 117° |
| 2026-04-20 22:30 | 37.62161 | -122.37649 | 21 ft | 45 kts | 118° |
| 2026-04-20 22:30 | 37.62082 | -122.37462 | 23 ft | 21 kts | 118° |
| 2026-04-20 22:30 | 37.61993 | -122.37250 | 21 ft | 33 kts | 117° |
| 2026-04-20 22:31 | 37.61894 | -122.37088 | 21 ft | 19 kts | 176° |
| 2026-04-20 22:31 | 37.61775 | -122.37154 | 22 ft | 19 kts | 210° |
| 2026-04-20 22:31 | 37.61664 | -122.37227 | 21 ft | 16 kts | 207° |
| 2026-04-20 22:31 | 37.61630 | -122.37296 | 21 ft | 6 kts | 288° |
| 2026-04-20 22:32 | 37.61633 | -122.37305 | 21 ft | 0 kts | 294° |
| 2026-04-20 22:33 | 37.61636 | -122.37312 | 21 ft | 3 kts | 294° |
| 2026-04-20 22:33 | 37.61662 | -122.37380 | 21 ft | 15 kts | 297° |
| 2026-04-20 22:34 | 37.61726 | -122.37536 | 21 ft | 23 kts | 293° |
| 2026-04-20 22:34 | 37.61784 | -122.37723 | 21 ft | 23 kts | 291° |
| 2026-04-20 22:34 | 37.61854 | -122.37894 | 21 ft | 22 kts | 321° |
| 2026-04-20 22:34 | 37.61962 | -122.38023 | 21 ft | 21 kts | 302° |
| 2026-04-20 22:35 | 37.62031 | -122.38185 | 21 ft | 21 kts | 298° |
| 2026-04-20 22:35 | 37.62107 | -122.38356 | 22 ft | 24 kts | 295° |
| 2026-04-20 22:35 | 37.62187 | -122.38554 | 23 ft | 27 kts | 299° |
| 2026-04-20 22:35 | 37.62279 | -122.38775 | 21 ft | 30 kts | 297° |
| 2026-04-20 22:36 | 37.62337 | -122.38974 | 21 ft | 20 kts | 268° |
| 2026-04-20 22:36 | 37.62298 | -122.39135 | 23 ft | 19 kts | 244° |
| 2026-04-20 22:36 | 37.62199 | -122.39225 | 21 ft | 15 kts | 188° |
| 2026-04-20 22:36 | 37.62145 | -122.39179 | 22 ft | 9 kts | 159° |
| 2026-04-20 22:37 | 37.62078 | -122.39206 | 23 ft | 12 kts | 204° |
| 2026-04-20 22:37 | 37.62013 | -122.39151 | 21 ft | 13 kts | 119° |
| 2026-04-20 22:37 | 37.61971 | -122.39049 | 22 ft | 13 kts | 117° |
| 2026-04-20 22:37 | 37.61929 | -122.38951 | 21 ft | 13 kts | 117° |
| 2026-04-20 22:38 | 37.61922 | -122.38868 | 21 ft | 6 kts | 46° |
| 2026-04-20 22:38 | 37.61957 | -122.38841 | 23 ft | 6 kts | 28° |
| 2026-04-20 22:38 | 37.61971 | -122.38832 | 21 ft | 0 kts | 27° |
| 2026-04-20 22:38 | 37.61973 | -122.38830 | 23 ft | 2 kts | 27° |
| 2026-04-20 22:39 | 37.61974 | -122.38830 | 23 ft | 0 kts | 27° |